Time;durP1;ratioP1;P1;durP2;ratioP2;P2;SDS_P1;SDS_P2;PMS_P1;PMS_P2;Temp;Humidity;BMP_temperature;BMP_pressure;BME280_temperature;BME280_humidity;BME280_pressure;Samples;Min_cycle;Max_cycle;Signal;HPM_P1;HPM_P2
2023/05/25 00:02:03;;;;;;;13.68;9.00;;;;;;;-142.57;100.00;115900.28;4899949;29;20055;-84
2023/05/25 00:04:33;;;;;;;18.00;9.05;;;;;;;-142.57;100.00;115900.28;4899115;29;20452;-82
2023/05/25 00:07:02;;;;;;;14.57;8.93;;;;;;;-142.57;100.00;115900.28;4900335;29;20028;-83
2023/05/25 00:09:27;;;;;;;16.13;9.13;;;;;;;-142.57;100.00;115900.28;4900022;29;20506;-84
2023/05/25 00:11:53;;;;;;;14.02;9.45;;;;;;;-142.57;100.00;115900.28;4900282;29;20029;-82
2023/05/25 00:14:19;;;;;;;14.40;9.60;;;;;;;-142.57;100.00;115900.28;4900018;29;20186;-82
2023/05/25 00:16:47;;;;;;;15.00;9.43;;;;;;;-142.57;100.00;115900.28;4900356;29;20459;-86
2023/05/25 00:19:13;;;;;;;17.58;8.68;;;;;;;-142.57;100.00;115900.28;4899805;29;20040;-83
2023/05/25 00:21:40;;;;;;;15.23;8.95;;;;;;;-142.57;100.00;115900.28;4899940;29;20123;-82
2023/05/25 00:24:06;;;;;;;13.45;9.50;;;;;;;-142.57;100.00;115900.28;4900084;29;20040;-83
2023/05/25 00:26:32;;;;;;;15.65;9.73;;;;;;;-142.57;100.00;115900.28;4883127;29;20080;-83
2023/05/25 00:28:59;;;;;;;12.68;8.82;;;;;;;-142.57;100.00;115900.28;4899997;29;20039;-84
2023/05/25 00:31:25;;;;;;;13.40;9.13;;;;;;;-142.57;100.00;115900.28;4899748;29;20406;-82
2023/05/25 00:33:51;;;;;;;17.92;10.10;;;;;;;-142.57;100.00;115900.28;4899676;29;20033;-81
2023/05/25 00:36:16;;;;;;;14.00;9.85;;;;;;;-142.57;100.00;115900.28;4900214;29;20526;-80
2023/05/25 00:38:42;;;;;;;14.88;10.50;;;;;;;-142.57;100.00;115900.28;4883443;29;20099;-83
2023/05/25 00:41:07;;;;;;;15.63;10.20;;;;;;;-142.57;100.00;115900.28;4902217;29;20029;-83
2023/05/25 00:43:33;;;;;;;16.02;9.75;;;;;;;-142.57;100.00;115900.28;4910655;29;20112;-78
2023/05/25 00:45:59;;;;;;;15.35;9.07;;;;;;;-142.57;100.00;115900.28;4918294;29;20063;-80
2023/05/25 00:48:25;;;;;;;18.05;10.23;;;;;;;-142.57;100.00;115900.28;4919833;29;20034;-79
2023/05/25 00:50:56;;;;;;;23.65;10.32;;;;;;;-142.57;100.00;115900.28;4920402;29;20032;-80
2023/05/25 00:53:22;;;;;;;13.35;10.23;;;;;;;-142.57;100.00;115900.28;4905112;29;20055;-79
2023/05/25 00:55:57;;;;;;;21.75;11.32;;;;;;;-142.57;100.00;115900.28;4918427;29;20041;-78
2023/05/25 00:58:26;;;;;;;17.38;10.82;;;;;;;-142.57;100.00;115900.28;4919621;29;20048;-79
2023/05/25 01:00:55;;;;;;;17.52;11.13;;;;;;;-142.57;100.00;115900.28;4903716;29;20131;-78
2023/05/25 01:03:26;;;;;;;16.98;10.25;;;;;;;-142.57;100.00;115900.28;4920200;29;20441;-79
2023/05/25 01:05:53;;;;;;;18.30;11.10;;;;;;;-142.57;100.00;115900.28;4915887;29;20100;-80
2023/05/25 01:08:23;;;;;;;16.00;10.20;;;;;;;-142.57;100.00;115900.28;4909233;29;20105;-85
2023/05/25 01:10:51;;;;;;;12.30;9.68;;;;;;;-142.57;100.00;115900.28;4905922;29;20059;-83
2023/05/25 01:13:19;;;;;;;13.57;10.13;;;;;;;-142.57;100.00;115900.28;4900919;29;20051;-81
2023/05/25 01:15:46;;;;;;;19.45;10.52;;;;;;;-142.57;100.00;115900.28;4900165;29;20044;-84
2023/05/25 01:18:13;;;;;;;15.40;9.35;;;;;;;-142.57;100.00;115900.28;4902885;29;20032;-84
2023/05/25 01:20:53;;;;;;;17.70;9.82;;;;;;;-142.57;100.00;115900.28;4902141;29;20499;-86
2023/05/25 01:23:25;;;;;;;17.88;9.65;;;;;;;-142.57;100.00;115900.28;4867645;29;20075;-86
2023/05/25 01:25:56;;;;;;;15.57;9.25;;;;;;;-142.57;100.00;115900.28;4901321;29;20463;-86
2023/05/25 01:28:29;;;;;;;17.33;9.03;;;;;;;-142.57;100.00;115900.28;4883107;29;20570;-82
2023/05/25 01:30:56;;;;;;;14.88;9.25;;;;;;;-142.57;100.00;115900.28;4867369;29;20047;-86
2023/05/25 01:33:23;;;;;;;16.25;9.73;;;;;;;-142.57;100.00;115900.28;4899504;29;20055;-85
2023/05/25 01:35:49;;;;;;;20.13;10.20;;;;;;;-142.57;100.00;115900.28;4898924;29;20491;-83
2023/05/25 01:38:16;;;;;;;17.15;9.65;;;;;;;-142.57;100.00;115900.28;4899113;29;20092;-84
2023/05/25 01:40:42;;;;;;;13.18;10.02;;;;;;;-142.57;100.00;115900.28;4882293;29;20044;-83
2023/05/25 01:43:07;;;;;;;14.43;10.02;;;;;;;-142.57;100.00;115900.28;4899354;29;20088;-86
2023/05/25 01:45:34;;;;;;;17.88;10.60;;;;;;;-142.57;100.00;115900.28;4899004;29;20085;-79
2023/05/25 01:48:25;;;;;;;14.82;9.65;;;;;;;-142.57;100.00;115900.28;4880913;29;20487;-80
2023/05/25 01:50:58;;;;;;;15.45;9.52;;;;;;;-142.57;100.00;115900.28;4897872;29;20055;-83
2023/05/25 01:53:44;;;;;;;14.98;8.95;;;;;;;-142.57;100.00;115900.28;4897453;29;20044;-82
2023/05/25 01:56:12;;;;;;;15.52;9.15;;;;;;;-142.57;100.00;115900.28;4880922;29;20036;-84
2023/05/25 01:58:41;;;;;;;16.08;8.60;;;;;;;-142.57;100.00;115900.28;4880580;29;20048;-85
2023/05/25 02:01:08;;;;;;;16.25;9.27;;;;;;;-142.57;100.00;115900.28;4880705;29;20040;-84
2023/05/25 02:03:36;;;;;;;12.68;9.65;;;;;;;-142.57;100.00;115900.28;4880618;29;20140;-82
2023/05/25 02:06:03;;;;;;;15.68;9.23;;;;;;;-142.57;100.00;115900.28;4865356;29;20033;-81
2023/05/25 02:08:28;;;;;;;17.02;10.00;;;;;;;-142.57;100.00;115900.28;4865285;29;20048;-83
2023/05/25 02:10:54;;;;;;;17.88;10.02;;;;;;;-142.57;100.00;115900.28;4897497;29;20068;-82
2023/05/25 02:13:19;;;;;;;15.80;10.45;;;;;;;-142.57;100.00;115900.28;4897263;29;20029;-81
2023/05/25 02:15:45;;;;;;;15.32;9.82;;;;;;;-142.57;100.00;115900.28;4865309;29;20175;-85
2023/05/25 02:18:12;;;;;;;18.20;10.65;;;;;;;-142.57;100.00;115900.28;4897263;29;20387;-83
2023/05/25 02:20:38;;;;;;;22.67;10.00;;;;;;;-142.57;100.00;115900.28;4897382;29;20119;-84
2023/05/25 02:23:03;;;;;;;16.42;9.98;;;;;;;-142.57;100.00;115900.28;4897239;29;20435;-85
2023/05/25 02:25:29;;;;;;;19.70;9.63;;;;;;;-142.57;100.00;115900.28;4897284;29;20044;-82
2023/05/25 02:27:55;;;;;;;15.25;10.02;;;;;;;-142.57;100.00;115900.28;4868254;29;20048;-83
2023/05/25 02:30:20;;;;;;;21.20;10.70;;;;;;;-142.57;100.00;115900.28;4883890;29;20127;-84
2023/05/25 02:32:46;;;;;;;14.63;10.35;;;;;;;-142.57;100.00;115900.28;4868506;29;20037;-84
2023/05/25 02:35:11;;;;;;;16.77;10.50;;;;;;;-142.57;100.00;115900.28;4884095;29;20464;-83
2023/05/25 02:37:38;;;;;;;17.50;10.10;;;;;;;-142.57;100.00;115900.28;4900759;29;20124;-85
2023/05/25 02:40:04;;;;;;;16.02;10.27;;;;;;;-142.57;100.00;115900.28;4883571;29;20060;-82
2023/05/25 02:42:30;;;;;;;18.67;10.98;;;;;;;-142.57;100.00;115900.28;4883868;29;20044;-84
2023/05/25 02:44:57;;;;;;;15.75;10.27;;;;;;;-142.57;100.00;115900.28;4883824;29;20068;-86
2023/05/25 02:47:23;;;;;;;17.58;10.68;;;;;;;-142.57;100.00;115900.28;4884003;29;20131;-84
2023/05/25 02:49:49;;;;;;;19.92;11.35;;;;;;;-142.57;100.00;115900.28;4883675;29;20043;-81
2023/05/25 02:52:15;;;;;;;17.48;11.23;;;;;;;-142.57;100.00;115900.28;4883782;29;20435;-85
2023/05/25 02:54:41;;;;;;;21.70;11.13;;;;;;;-142.57;100.00;115900.28;4883830;29;20051;-85
2023/05/25 02:57:07;;;;;;;24.33;11.07;;;;;;;-142.57;100.00;115900.28;4884277;29;20048;-83
2023/05/25 02:59:33;;;;;;;25.95;11.07;;;;;;;-142.57;100.00;115900.28;4883875;29;20037;-80
2023/05/25 03:01:59;;;;;;;18.38;11.73;;;;;;;-142.57;100.00;115900.28;4904647;29;20037;-85
2023/05/25 03:04:25;;;;;;;17.95;11.63;;;;;;;-142.57;100.00;115900.28;4908056;29;20041;-81
2023/05/25 03:06:50;;;;;;;21.45;12.05;;;;;;;-142.57;100.00;115900.28;4905755;29;20033;-81
2023/05/25 03:09:17;;;;;;;18.70;12.23;;;;;;;-142.57;100.00;115900.28;4887085;29;20059;-86
2023/05/25 03:11:45;;;;;;;20.85;11.80;;;;;;;-142.57;100.00;115900.28;4884450;29;20033;-80
2023/05/25 03:14:14;;;;;;;22.67;13.18;;;;;;;-142.57;100.00;115900.28;4884360;29;20037;-82
2023/05/25 03:16:44;;;;;;;17.50;11.98;;;;;;;-142.57;100.00;115900.28;4883875;29;20112;-82
2023/05/25 03:19:11;;;;;;;19.33;12.82;;;;;;;-142.57;100.00;115900.28;4884025;29;20033;-85
2023/05/25 03:21:37;;;;;;;29.05;13.85;;;;;;;-142.57;100.00;115900.28;4872031;29;20040;-80
2023/05/25 03:24:03;;;;;;;24.33;14.50;;;;;;;-142.57;100.00;115900.28;4901091;29;20115;-82
2023/05/25 03:26:29;;;;;;;21.08;13.98;;;;;;;-142.57;100.00;115900.28;4918584;29;20240;-80
2023/05/25 03:28:55;;;;;;;23.10;15.10;;;;;;;-142.57;100.00;115900.28;4900632;29;20065;-81
2023/05/25 03:31:22;;;;;;;26.27;15.55;;;;;;;-142.57;100.00;115900.28;4917035;29;20033;-81
2023/05/25 03:33:47;;;;;;;22.92;15.00;;;;;;;-142.57;100.00;115900.28;4900001;29;20055;-81
2023/05/25 03:36:16;;;;;;;22.98;15.00;;;;;;;-142.57;100.00;115900.28;4900077;29;20043;-81
2023/05/25 03:38:45;;;;;;;20.52;13.90;;;;;;;-142.57;100.00;115900.28;4897684;29;20028;-81
2023/05/25 03:41:10;;;;;;;19.80;14.07;;;;;;;-142.57;100.00;115900.28;4908058;29;20119;-79
2023/05/25 03:43:36;;;;;;;28.88;15.07;;;;;;;-142.57;100.00;115900.28;4895069;29;20076;-84
2023/05/25 03:46:04;;;;;;;22.20;14.20;;;;;;;-142.57;100.00;115900.28;4894411;29;20039;-84
2023/05/25 03:48:29;;;;;;;24.42;15.93;;;;;;;-142.57;100.00;115900.28;4920454;29;20041;-83
2023/05/25 03:50:55;;;;;;;28.42;15.63;;;;;;;-142.57;100.00;115900.28;4904042;29;20040;-83
2023/05/25 03:53:21;;;;;;;27.08;16.33;;;;;;;-142.57;100.00;115900.28;4903670;29;20134;-85
2023/05/25 03:55:50;;;;;;;26.45;17.17;;;;;;;-142.57;100.00;115900.28;4898137;29;20559;-82
2023/05/25 03:58:17;;;;;;;29.17;18.13;;;;;;;-142.57;100.00;115900.28;4899501;29;20048;-82
2023/05/25 04:00:42;;;;;;;27.35;19.30;;;;;;;-142.57;100.00;115900.28;4901732;29;20108;-82
2023/05/25 04:03:09;;;;;;;24.73;17.35;;;;;;;-142.57;100.00;115900.28;4910790;29;20038;-88
2023/05/25 04:05:37;;;;;;;27.08;16.85;;;;;;;-142.57;100.00;115900.28;4902082;29;20024;-84
2023/05/25 04:08:03;;;;;;;28.85;16.85;;;;;;;-142.57;100.00;115900.28;4914937;29;20041;-85
2023/05/25 04:10:29;;;;;;;30.40;18.70;;;;;;;-142.57;100.00;115900.28;4906783;29;20047;-84
2023/05/25 04:12:58;;;;;;;26.10;17.38;;;;;;;-142.57;100.00;115900.28;4883439;29;20072;-84
2023/05/25 04:15:24;;;;;;;30.27;17.50;;;;;;;-142.57;100.00;115900.28;4882853;29;20036;-85
2023/05/25 04:18:02;;;;;;;32.65;17.65;;;;;;;-142.57;100.00;115900.28;4882624;29;20123;-84
2023/05/25 04:20:28;;;;;;;32.63;17.92;;;;;;;-142.57;100.00;115900.28;4882512;29;20045;-83
2023/05/25 04:22:55;;;;;;;24.33;17.45;;;;;;;-142.57;100.00;115900.28;4882659;29;20076;-84
2023/05/25 04:25:21;;;;;;;30.15;18.40;;;;;;;-142.57;100.00;115900.28;4882507;29;20052;-84
2023/05/25 04:27:47;;;;;;;34.05;18.40;;;;;;;-142.57;100.00;115900.28;4882343;29;20048;-83
2023/05/25 04:30:20;;;;;;;27.02;17.52;;;;;;;-142.57;100.00;115900.28;4882279;29;20219;-85
2023/05/25 04:33:10;;;;;;;27.33;18.05;;;;;;;-142.57;100.00;115900.28;4875984;29;20376;-83
2023/05/25 04:35:49;;;;;;;32.55;18.77;;;;;;;-142.57;100.00;115900.28;4882650;29;20139;-83
2023/05/25 04:38:16;;;;;;;31.10;19.02;;;;;;;-142.57;100.00;115900.28;4882203;29;20376;-84
2023/05/25 04:40:45;;;;;;;28.65;16.98;;;;;;;-142.57;100.00;115900.28;4881842;29;20071;-83
2023/05/25 04:43:12;;;;;;;28.35;17.70;;;;;;;-142.57;100.00;115900.28;4882396;29;20041;-85
2023/05/25 04:45:38;;;;;;;34.10;19.30;;;;;;;-142.57;100.00;115900.28;4882206;29;20499;-85
2023/05/25 04:48:06;;;;;;;27.45;18.00;;;;;;;-142.57;100.00;115900.28;4881943;29;20025;-83
2023/05/25 04:50:31;;;;;;;29.80;18.30;;;;;;;-142.57;100.00;115900.28;4880881;29;20047;-84
2023/05/25 04:52:57;;;;;;;32.08;18.13;;;;;;;-142.57;100.00;115900.28;4880784;29;20398;-84
2023/05/25 04:55:23;;;;;;;26.42;16.15;;;;;;;-142.57;100.00;115900.28;4881679;29;20033;-86
2023/05/25 04:57:48;;;;;;;22.10;13.27;;;;;;;-142.57;100.00;115900.28;4871149;29;20442;-84
2023/05/25 05:00:15;;;;;;;22.42;14.02;;;;;;;-142.57;100.00;115900.28;4902486;29;20032;-87
2023/05/25 05:02:42;;;;;;;25.75;16.80;;;;;;;-142.57;100.00;115900.28;4866904;29;20048;-84
2023/05/25 05:05:08;;;;;;;32.20;18.48;;;;;;;-142.57;100.00;115900.28;4882413;29;20029;-86
2023/05/25 05:07:34;;;;;;;22.92;14.90;;;;;;;-142.57;100.00;115900.28;4885214;29;20037;-85
2023/05/25 05:10:00;;;;;;;26.20;16.40;;;;;;;-142.57;100.00;115900.28;4885294;29;20055;-85
2023/05/25 05:12:27;;;;;;;22.30;14.90;;;;;;;-142.57;100.00;115900.28;4886364;29;20532;-83
2023/05/25 05:14:55;;;;;;;22.50;15.73;;;;;;;-142.57;100.00;115900.28;4882810;29;20045;-87
2023/05/25 05:17:21;;;;;;;28.60;14.45;;;;;;;-142.57;100.00;115900.28;4882857;29;20119;-87
2023/05/25 05:19:51;;;;;;;23.02;15.40;;;;;;;-142.57;100.00;115900.28;4884915;29;20580;-86
2023/05/25 05:22:17;;;;;;;27.05;15.68;;;;;;;-142.57;100.00;115900.28;4884843;29;20044;-86
2023/05/25 05:24:44;;;;;;;22.90;14.07;;;;;;;-142.57;100.00;115900.28;4881856;29;20041;-84
2023/05/25 05:27:15;;;;;;;21.35;14.60;;;;;;;-142.57;100.00;115900.28;4883275;29;20056;-83
2023/05/25 05:29:44;;;;;;;23.40;14.43;;;;;;;-142.57;100.00;115900.28;4880788;29;20036;-83
2023/05/25 05:32:10;;;;;;;24.60;15.32;;;;;;;-142.57;100.00;115900.28;4881249;29;20127;-82
2023/05/25 05:34:36;;;;;;;29.30;16.60;;;;;;;-142.57;100.00;115900.28;4881415;29;20039;-84
2023/05/25 05:37:06;;;;;;;30.98;17.40;;;;;;;-142.57;100.00;115900.28;4881293;29;20017;-84
2023/05/25 05:39:31;;;;;;;26.27;16.05;;;;;;;-142.57;100.00;115900.28;4880851;29;20071;-86
2023/05/25 05:41:58;;;;;;;35.28;15.95;;;;;;;-142.57;100.00;115900.28;4881215;29;20123;-84
2023/05/25 05:44:24;;;;;;;27.98;15.20;;;;;;;-142.57;100.00;115900.28;4865503;29;20451;-83
2023/05/25 05:46:49;;;;;;;26.38;15.43;;;;;;;-142.57;100.00;115900.28;4880492;29;20127;-84
2023/05/25 05:49:15;;;;;;;25.85;15.85;;;;;;;-142.57;100.00;115900.28;4897240;29;20403;-86
2023/05/25 05:51:41;;;;;;;30.90;16.80;;;;;;;-142.57;100.00;115900.28;4880725;29;20040;-84
2023/05/25 05:54:06;;;;;;;26.05;16.48;;;;;;;-142.57;100.00;115900.28;4880833;29;20033;-83
2023/05/25 05:56:32;;;;;;;28.50;16.10;;;;;;;-142.57;100.00;115900.28;4881036;29;20131;-84
2023/05/25 05:58:57;;;;;;;30.65;15.98;;;;;;;-142.57;100.00;115900.28;4880910;29;20059;-84
2023/05/25 06:01:24;;;;;;;28.75;16.70;;;;;;;-142.57;100.00;115900.28;4881938;29;20182;-82
2023/05/25 06:03:53;;;;;;;29.27;17.23;;;;;;;-142.57;100.00;115900.28;4885115;29;20107;-82
2023/05/25 06:06:18;;;;;;;30.50;16.85;;;;;;;-142.57;100.00;115900.28;4902036;29;20035;-84
2023/05/25 06:08:45;;;;;;;33.35;18.13;;;;;;;-142.57;100.00;115900.28;4885188;29;20029;-84
2023/05/25 06:11:11;;;;;;;34.00;18.33;;;;;;;-142.57;100.00;115900.28;4884887;29;20041;-83
2023/05/25 06:13:36;;;;;;;25.75;17.58;;;;;;;-142.57;100.00;115900.28;4901344;29;20398;-85
2023/05/25 06:16:03;;;;;;;27.67;16.35;;;;;;;-142.57;100.00;115900.28;4884549;29;20048;-84
2023/05/25 06:18:29;;;;;;;29.75;16.27;;;;;;;-142.57;100.00;115900.28;4884998;29;20031;-85
2023/05/25 06:20:56;;;;;;;29.50;17.85;;;;;;;-142.57;100.00;115900.28;4885083;29;20088;-82
2023/05/25 06:23:21;;;;;;;32.28;16.88;;;;;;;-142.57;100.00;115900.28;4903365;29;20037;-86
2023/05/25 06:25:47;;;;;;;28.77;16.92;;;;;;;-142.57;100.00;115900.28;4901162;29;20032;-83
2023/05/25 06:28:14;;;;;;;29.88;16.42;;;;;;;-142.57;100.00;115900.28;4877156;29;20120;-82
2023/05/25 06:30:40;;;;;;;29.75;17.98;;;;;;;-142.57;100.00;115900.28;4882930;29;20033;-85
2023/05/25 06:33:07;;;;;;;29.08;17.02;;;;;;;-142.57;100.00;115900.28;4883267;29;20583;-84
2023/05/25 06:35:33;;;;;;;26.70;18.70;;;;;;;-142.57;100.00;115900.28;4889332;29;20040;-85
2023/05/25 06:37:58;;;;;;;26.58;17.15;;;;;;;-142.57;100.00;115900.28;4885403;29;20033;-86
2023/05/25 06:40:24;;;;;;;34.95;19.00;;;;;;;-142.57;100.00;115900.28;4870601;29;20033;-85
2023/05/25 06:42:49;;;;;;;32.45;19.15;;;;;;;-142.57;100.00;115900.28;4886823;29;20037;-86
2023/05/25 06:45:33;;;;;;;26.58;18.15;;;;;;;-142.57;100.00;115900.28;4885329;29;20056;-87
2023/05/25 06:47:59;;;;;;;29.25;18.83;;;;;;;-142.57;100.00;115900.28;4881860;29;20037;-83
2023/05/25 06:50:25;;;;;;;28.50;18.73;;;;;;;-142.57;100.00;115900.28;4884632;29;20033;-85
2023/05/25 06:52:50;;;;;;;28.17;18.08;;;;;;;-142.57;100.00;115900.28;4895052;29;20040;-86
2023/05/25 06:55:16;;;;;;;26.70;19.10;;;;;;;-142.57;100.00;115900.28;4888286;29;20414;-87
2023/05/25 06:57:43;;;;;;;34.40;19.70;;;;;;;-142.57;100.00;115900.28;4880522;29;20087;-83
2023/05/25 07:00:12;;;;;;;33.22;18.38;;;;;;;-142.57;100.00;115900.28;4895586;29;20044;-85
2023/05/25 07:02:38;;;;;;;34.47;18.15;;;;;;;-142.57;100.00;115900.28;4893243;29;20033;-82
2023/05/25 07:05:05;;;;;;;27.98;17.67;;;;;;;-142.57;100.00;115900.28;4894862;29;20135;-84
2023/05/25 07:07:33;;;;;;;30.02;18.85;;;;;;;-142.57;100.00;115900.28;4892572;29;20036;-83
2023/05/25 07:10:02;;;;;;;24.70;17.23;;;;;;;-142.57;100.00;115900.28;4893186;29;20482;-85
2023/05/25 07:12:27;;;;;;;26.05;16.40;;;;;;;-142.57;100.00;115900.28;4892558;29;20554;-84
2023/05/25 07:14:53;;;;;;;28.15;16.20;;;;;;;-142.57;100.00;115900.28;4893371;29;20096;-82
2023/05/25 07:17:18;;;;;;;22.85;15.43;;;;;;;-142.57;100.00;115900.28;4886669;29;20475;-82
2023/05/25 07:19:44;;;;;;;23.55;15.10;;;;;;;-142.57;100.00;115900.28;4894168;29;20040;-83
2023/05/25 07:22:10;;;;;;;27.40;16.58;;;;;;;-142.57;100.00;115900.28;4894679;29;20077;-82
2023/05/25 07:24:36;;;;;;;23.77;15.48;;;;;;;-142.57;100.00;115900.28;4898943;29;20049;-85
2023/05/25 07:27:02;;;;;;;23.23;16.25;;;;;;;-142.57;100.00;115900.28;4892012;29;20071;-83
2023/05/25 07:29:31;;;;;;;23.30;14.93;;;;;;;-142.57;100.00;115900.28;4893795;29;20060;-82
2023/05/25 07:31:56;;;;;;;21.55;13.90;;;;;;;-142.57;100.00;115900.28;4892777;29;20041;-82
2023/05/25 07:34:22;;;;;;;22.95;14.95;;;;;;;-142.57;100.00;115900.28;4884896;29;20123;-83
2023/05/25 07:36:47;;;;;;;19.05;13.93;;;;;;;-142.57;100.00;115900.28;4892328;29;20056;-83
2023/05/25 07:39:13;;;;;;;27.52;14.32;;;;;;;-142.57;100.00;115900.28;4893157;29;20052;-84
2023/05/25 07:41:38;;;;;;;23.95;14.23;;;;;;;-142.57;100.00;115900.28;4891390;29;20393;-85
2023/05/25 07:44:04;;;;;;;23.42;14.02;;;;;;;-142.57;100.00;115900.28;4892354;29;20064;-83
2023/05/25 07:46:30;;;;;;;19.38;12.80;;;;;;;-142.57;100.00;115900.28;4896046;29;20036;-82
2023/05/25 07:48:58;;;;;;;17.88;13.18;;;;;;;-142.57;100.00;115900.28;4894102;29;20377;-86
2023/05/25 07:51:25;;;;;;;20.45;13.32;;;;;;;-142.57;100.00;115900.28;4892520;29;20347;-82
2023/05/25 07:53:54;;;;;;;22.05;12.82;;;;;;;-142.57;100.00;115900.28;4888384;29;20056;-84
2023/05/25 07:56:19;;;;;;;25.90;18.80;;;;;;;-142.57;100.00;115900.28;4892854;29;20036;-83
2023/05/25 07:58:45;;;;;;;29.23;18.88;;;;;;;-142.57;100.00;115900.28;4893881;29;20028;-83
2023/05/25 08:01:10;;;;;;;33.72;19.90;;;;;;;-142.57;100.00;115900.28;4893580;29;20161;-83
2023/05/25 08:03:36;;;;;;;34.42;18.95;;;;;;;-142.57;100.00;115900.28;4864203;29;20056;-83
2023/05/25 08:06:02;;;;;;;31.70;19.30;;;;;;;-142.57;100.00;115900.28;4892550;29;20048;-82
2023/05/25 08:08:28;;;;;;;34.65;20.83;;;;;;;-142.57;100.00;115900.28;4890414;29;20024;-82
2023/05/25 08:10:53;;;;;;;34.28;20.65;;;;;;;-142.57;100.00;115900.28;4884920;29;20488;-83
2023/05/25 08:13:19;;;;;;;28.88;20.52;;;;;;;-142.57;100.00;115900.28;4887310;29;20049;-85
2023/05/25 08:15:45;;;;;;;31.98;21.13;;;;;;;-142.57;100.00;115900.28;4890215;29;20048;-79
2023/05/25 08:18:11;;;;;;;29.05;20.38;;;;;;;-142.57;100.00;115900.28;4890515;29;20100;-83
2023/05/25 08:20:37;;;;;;;28.58;20.45;;;;;;;-142.57;100.00;115900.28;4890584;29;20422;-81
2023/05/25 08:23:03;;;;;;;29.83;19.92;;;;;;;-142.57;100.00;115900.28;4888975;29;20111;-83
2023/05/25 08:25:29;;;;;;;33.22;19.77;;;;;;;-142.57;100.00;115900.28;4889057;29;20036;-85
2023/05/25 08:27:59;;;;;;;32.00;20.65;;;;;;;-142.57;100.00;115900.28;4874002;29;20052;-82
2023/05/25 08:30:24;;;;;;;31.70;20.23;;;;;;;-142.57;100.00;115900.28;4871867;29;20052;-81
2023/05/25 08:32:50;;;;;;;27.33;19.92;;;;;;;-142.57;100.00;115900.28;4887576;29;20044;-82
2023/05/25 08:35:16;;;;;;;30.70;21.50;;;;;;;-142.57;100.00;115900.28;4889747;29;20041;-79
2023/05/25 08:37:42;;;;;;;29.17;21.00;;;;;;;-142.57;100.00;115900.28;4870949;29;20051;-81
2023/05/25 08:40:14;;;;;;;35.80;20.63;;;;;;;-142.57;100.00;115900.28;4889286;29;20119;-79
2023/05/25 08:42:44;;;;;;;30.23;20.67;;;;;;;-142.57;100.00;115900.28;4889274;29;20044;-81
2023/05/25 08:45:10;;;;;;;31.90;22.02;;;;;;;-142.57;100.00;115900.28;4882504;29;20135;-84
2023/05/25 08:47:40;;;;;;;46.42;22.05;;;;;;;-142.57;100.00;115900.28;4890212;29;21300;-85
2023/05/25 08:50:08;;;;;;;31.55;20.52;;;;;;;-142.57;100.00;115900.28;4889309;29;20044;-81
2023/05/25 08:52:37;;;;;;;36.65;21.52;;;;;;;-142.57;100.00;115900.28;4890448;29;20071;-82
2023/05/25 08:55:08;;;;;;;44.35;22.33;;;;;;;-142.57;100.00;115900.28;4889946;29;20033;-85
2023/05/25 08:57:58;;;;;;;30.47;21.97;;;;;;;-142.57;100.00;115900.28;4889170;29;20052;-85
2023/05/25 09:00:31;;;;;;;36.80;22.40;;;;;;;-142.57;100.00;115900.28;4885165;29;20032;-83
2023/05/25 09:03:14;;;;;;;43.03;23.08;;;;;;;-142.57;100.00;115900.28;4887310;29;20720;-84
2023/05/25 09:05:40;;;;;;;;;;;;;;;-142.57;100.00;115900.28;4892643;29;20040;-83
2023/05/25 09:08:07;;;;;;;38.50;23.80;;;;;;;-142.57;100.00;115900.28;4896486;29;19911;-87
2023/05/25 09:10:37;;;;;;;33.80;24.23;;;;;;;-142.57;100.00;115900.28;4896446;29;20032;-84
2023/05/25 09:13:04;;;;;;;35.67;23.38;;;;;;;-142.57;100.00;115900.28;4888704;29;20559;-85
2023/05/25 09:15:31;;;;;;;41.58;25.80;;;;;;;-142.57;100.00;115900.28;4898955;29;20466;-83
2023/05/25 09:17:56;;;;;;;36.42;25.60;;;;;;;-142.57;100.00;115900.28;4906787;29;20040;-83
2023/05/25 09:20:23;;;;;;;35.40;24.85;;;;;;;-142.57;100.00;115900.28;4919844;29;20040;-86
2023/05/25 09:22:49;;;;;;;32.95;24.95;;;;;;;-142.57;100.00;115900.28;4920901;29;20025;-85
2023/05/25 09:25:19;;;;;;;39.35;26.10;;;;;;;-142.57;100.00;115900.28;4921160;29;20048;-86
2023/05/25 09:27:45;;;;;;;43.72;25.85;;;;;;;-142.57;100.00;115900.28;4920170;29;20084;-86
2023/05/25 09:30:11;;;;;;;35.53;26.33;;;;;;;-142.57;100.00;115900.28;4919261;29;20036;-82
2023/05/25 09:32:37;;;;;;;38.03;26.27;;;;;;;-142.57;100.00;115900.28;4919568;29;20040;-78
2023/05/25 09:35:13;;;;;;;38.08;24.55;;;;;;;-142.57;100.00;115900.28;4919949;29;20076;-88
2023/05/25 09:37:41;;;;;;;33.40;25.25;;;;;;;-142.57;100.00;115900.28;4921616;29;20049;-83
2023/05/25 09:40:08;;;;;;;36.80;26.20;;;;;;;-142.57;100.00;115900.28;4920626;28;20056;-84
2023/05/25 09:42:34;;;;;;;34.22;24.73;;;;;;;-142.57;100.00;115900.28;4920371;29;20024;-84
2023/05/25 09:45:00;;;;;;;38.90;25.13;;;;;;;-142.57;100.00;115900.28;4915277;29;20057;-85
2023/05/25 09:47:32;;;;;;;32.17;24.00;;;;;;;-142.57;100.00;115900.28;4894154;29;20041;-84
2023/05/25 09:49:59;;;;;;;35.85;24.75;;;;;;;-142.57;100.00;115900.28;4897695;29;20048;-87
2023/05/25 09:52:25;;;;;;;38.55;25.35;;;;;;;-142.57;100.00;115900.28;4913826;29;20044;-84
2023/05/25 09:54:51;;;;;;;39.08;24.42;;;;;;;-142.57;100.00;115900.28;4906121;29;20032;-85
2023/05/25 09:57:19;;;;;;;44.67;26.75;;;;;;;-142.57;100.00;115900.28;4897080;29;20141;-82
2023/05/25 09:59:45;;;;;;;34.47;24.92;;;;;;;-142.57;100.00;115900.28;4901902;29;20084;-87
2023/05/25 10:02:11;;;;;;;40.45;23.73;;;;;;;-142.57;100.00;115900.28;4898050;29;20052;-85
2023/05/25 10:04:38;;;;;;;31.13;23.23;;;;;;;-142.57;100.00;115900.28;4897114;29;20033;-86
2023/05/25 10:07:04;;;;;;;32.20;23.20;;;;;;;-142.57;100.00;115900.28;4897287;29;20043;-87
2023/05/25 10:09:34;;;;;;;37.28;25.05;;;;;;;-142.57;100.00;115900.28;4897535;29;20032;-85
2023/05/25 10:12:01;;;;;;;43.22;23.92;;;;;;;-142.57;100.00;115900.28;4896880;29;20037;-89
2023/05/25 10:14:28;;;;;;;38.30;24.33;;;;;;;-142.57;100.00;115900.28;4887950;29;20069;-86
2023/05/25 10:16:56;;;;;;;33.25;22.98;;;;;;;-142.57;100.00;115900.28;4898329;29;20037;-83
2023/05/25 10:19:30;;;;;;;34.60;24.13;;;;;;;-142.57;100.00;115900.28;4897298;29;20475;-87
2023/05/25 10:22:12;;;;;;;30.05;22.83;;;;;;;-142.57;100.00;115900.28;4897636;29;20108;-88
2023/05/25 10:25:10;;;;;;;33.42;22.13;;;;;;;-142.57;100.00;115900.28;4896528;29;20041;-86
2023/05/25 10:27:40;;;;;;;29.85;21.30;;;;;;;-142.57;100.00;115900.28;4905431;29;20052;-86
2023/05/25 10:30:07;;;;;;;32.75;22.02;;;;;;;-142.57;100.00;115900.28;4909833;29;20037;-87
2023/05/25 10:32:36;;;;;;;28.95;22.77;;;;;;;-142.57;100.00;115900.28;4900502;29;20028;-85
2023/05/25 10:35:03;;;;;;;35.20;21.75;;;;;;;-142.57;100.00;115900.28;4908803;29;20100;-87
2023/05/25 10:37:29;;;;;;;31.83;22.17;;;;;;;-142.57;100.00;115900.28;4904249;29;20033;-88
2023/05/25 10:39:56;;;;;;;28.52;20.42;;;;;;;-142.57;100.00;115900.28;4913152;29;20089;-89
2023/05/25 10:42:23;;;;;;;29.80;20.33;;;;;;;-142.57;100.00;115900.28;4872933;29;20051;-89
2023/05/25 10:44:49;;;;;;;25.90;19.02;;;;;;;-142.57;100.00;115900.28;4886062;29;20052;-87
2023/05/25 10:47:15;;;;;;;30.23;19.70;;;;;;;-142.57;100.00;115900.28;4897278;29;20025;-84
2023/05/25 10:49:59;;;;;;;27.27;18.27;;;;;;;-142.57;100.00;115900.28;4901901;29;20032;-88